createdAt,value
2023-04-18T00:00:58.726Z,15.70
2023-04-18T00:03:29.989Z,15.48
2023-04-18T00:05:59.494Z,15.77
2023-04-18T00:08:29.875Z,15.48
2023-04-18T00:10:58.924Z,15.13
2023-04-18T00:13:28.526Z,14.45
2023-04-18T00:15:57.595Z,15.85
2023-04-18T00:18:27.917Z,15.40
2023-04-18T00:20:56.954Z,14.85
2023-04-18T00:23:28.296Z,14.90
2023-04-18T00:28:27.577Z,15.70
2023-04-18T00:30:57.496Z,14.57
2023-04-18T00:33:26.537Z,15.52
2023-04-18T00:35:55.572Z,15.90
2023-04-18T00:38:24.582Z,14.88
2023-04-18T00:40:53.612Z,14.20
2023-04-18T00:43:25.612Z,15.07
2023-04-18T00:45:54.736Z,14.75
2023-04-18T00:48:24.916Z,14.82
2023-04-18T00:50:56.701Z,13.93
2023-04-18T00:53:26.134Z,14.15
2023-04-18T00:55:55.314Z,15.93
2023-04-18T00:58:25.899Z,15.48
2023-04-18T01:00:55.177Z,16.23
2023-04-18T01:03:24.512Z,16.58
2023-04-18T01:05:55.043Z,16.23
2023-04-18T01:08:24.221Z,16.77
2023-04-18T01:10:53.636Z,16.20
2023-04-18T01:13:22.752Z,16.17
2023-04-18T01:15:54.444Z,16.67
2023-04-18T01:18:24.414Z,15.02
2023-04-18T01:20:57.064Z,16.88
2023-04-18T01:23:26.210Z,16.80
2023-04-18T01:25:56.613Z,14.88
2023-04-18T01:28:28.520Z,18.08
2023-04-18T01:30:58.328Z,17.00
2023-04-18T01:33:27.401Z,16.98
2023-04-18T01:35:56.378Z,16.45
2023-04-18T01:38:25.381Z,15.98
2023-04-18T01:40:57.328Z,15.77
2023-04-18T01:43:26.369Z,17.47
2023-04-18T01:45:55.435Z,17.05
2023-04-18T01:48:24.492Z,17.48
2023-04-18T01:50:53.544Z,18.42
2023-04-18T01:53:24.121Z,19.73
2023-04-18T01:55:53.147Z,18.30
2023-04-18T01:58:23.910Z,19.10
2023-04-18T02:00:53.689Z,20.60
2023-04-18T02:03:23.713Z,21.50
2023-04-18T02:05:54.620Z,20.73
2023-04-18T02:08:23.821Z,21.33
2023-04-18T02:10:52.852Z,22.33
2023-04-18T02:13:24.368Z,21.70
2023-04-18T02:15:53.461Z,22.23
2023-04-18T02:18:24.784Z,21.05
2023-04-18T02:23:24.152Z,22.13
2023-04-18T02:25:53.600Z,24.15
2023-04-18T02:28:24.089Z,22.23
2023-04-18T02:30:53.122Z,21.63
2023-04-18T02:33:22.104Z,22.92
2023-04-18T02:35:51.351Z,24.25
2023-04-18T02:38:20.490Z,26.35
2023-04-18T02:40:54.135Z,26.20
2023-04-18T02:43:24.639Z,23.45
2023-04-18T02:45:53.889Z,25.23
2023-04-18T02:48:23.339Z,22.80
2023-04-18T02:50:52.802Z,25.85
2023-04-18T02:53:23.956Z,22.73
2023-04-18T02:55:56.203Z,23.85
2023-04-18T02:58:34.840Z,22.52
2023-04-18T03:01:36.004Z,23.02
2023-04-18T03:04:14.462Z,23.92
2023-04-18T03:06:47.881Z,25.77
2023-04-18T03:11:51.719Z,23.50
2023-04-18T03:14:27.598Z,24.92
2023-04-18T03:16:58.093Z,23.67
2023-04-18T03:19:32.664Z,25.05
2023-04-18T03:22:07.778Z,25.50
2023-04-18T03:24:39.927Z,22.80
2023-04-18T03:27:11.732Z,24.15
2023-04-18T03:29:43.235Z,24.75
2023-04-18T03:32:12.678Z,23.42
2023-04-18T03:34:41.750Z,22.70
2023-04-18T03:37:11.434Z,21.92
2023-04-18T03:39:46.026Z,24.30
2023-04-18T03:42:15.580Z,21.30
2023-04-18T03:44:46.927Z,21.92
2023-04-18T03:47:16.967Z,22.88
2023-04-18T03:49:49.995Z,24.23
2023-04-18T03:52:20.282Z,24.23
2023-04-18T03:54:49.606Z,25.08
2023-04-18T03:57:21.133Z,23.45
2023-04-18T03:59:51.559Z,22.95
2023-04-18T04:02:20.740Z,23.37
2023-04-18T04:04:52.191Z,23.45
2023-04-18T04:07:21.499Z,26.27
2023-04-18T04:09:50.520Z,26.88
2023-04-18T04:12:19.662Z,26.92
2023-04-18T04:14:51.004Z,27.02
2023-04-18T04:17:20.773Z,25.08
2023-04-18T04:19:51.241Z,26.27
2023-04-18T04:22:22.117Z,24.27
2023-04-18T04:24:52.040Z,24.40
2023-04-18T04:27:28.139Z,24.38
2023-04-18T04:29:58.984Z,26.50
2023-04-18T04:32:28.971Z,24.80
2023-04-18T04:34:58.032Z,23.65
2023-04-18T04:37:28.434Z,24.52
2023-04-18T04:40:19.641Z,26.25
2023-04-18T04:42:54.100Z,24.23
2023-04-18T04:45:31.254Z,28.30
2023-04-18T04:48:00.636Z,26.48
2023-04-18T04:50:29.766Z,25.83
2023-04-18T04:52:58.778Z,24.45
2023-04-18T04:55:27.921Z,24.77
2023-04-18T04:57:57.493Z,26.25
2023-04-18T05:00:37.911Z,24.95
2023-04-18T05:03:07.182Z,24.37
2023-04-18T05:05:36.889Z,25.85
2023-04-18T05:08:06.324Z,25.48
2023-04-18T05:10:37.134Z,26.63
2023-04-18T05:13:06.814Z,25.67
2023-04-18T05:15:37.530Z,27.45
2023-04-18T05:18:06.825Z,26.33
2023-04-18T05:20:35.979Z,26.65
2023-04-18T05:23:04.988Z,29.27
2023-04-18T05:25:34.069Z,28.85
2023-04-18T05:28:04.613Z,28.25
2023-04-18T05:30:33.630Z,27.20
2023-04-18T05:33:04.392Z,27.52
2023-04-18T05:35:33.735Z,24.80
2023-04-18T05:38:02.811Z,25.02
2023-04-18T05:40:31.865Z,25.27
2023-04-18T05:43:01.757Z,24.73
2023-04-18T05:45:30.796Z,23.42
2023-04-18T05:47:59.867Z,22.85
2023-04-18T05:50:30.412Z,25.05
2023-04-18T05:53:00.079Z,23.23
2023-04-18T05:55:29.147Z,23.25
2023-04-18T05:57:58.184Z,22.75
2023-04-18T06:00:27.315Z,23.23
2023-04-18T06:02:56.534Z,23.90
2023-04-18T06:05:26.153Z,23.42
2023-04-18T06:07:56.922Z,23.02
2023-04-18T06:10:26.162Z,22.23
2023-04-18T06:12:55.180Z,24.38
2023-04-18T06:15:24.170Z,22.85
2023-04-18T06:17:53.299Z,21.13
2023-04-18T06:20:23.234Z,23.35
2023-04-18T06:22:52.356Z,20.40
2023-04-18T06:25:22.946Z,24.17
2023-04-18T06:27:52.172Z,21.27
2023-04-18T06:30:22.156Z,21.02
2023-04-18T06:32:51.674Z,22.27
2023-04-18T06:35:20.775Z,23.33
2023-04-18T06:37:51.142Z,24.45
2023-04-18T06:40:20.356Z,24.55
2023-04-18T06:42:50.813Z,24.92
2023-04-18T06:45:20.235Z,23.83
2023-04-18T06:47:51.476Z,25.25
2023-04-18T06:50:20.579Z,24.10
2023-04-18T06:52:49.692Z,25.30
2023-04-18T06:55:18.909Z,25.52
2023-04-18T06:57:47.916Z,26.73
2023-04-18T07:00:19.002Z,25.13
2023-04-18T07:02:48.412Z,26.95
2023-04-18T07:05:17.513Z,27.05
2023-04-18T07:07:46.577Z,26.80
2023-04-18T07:10:15.636Z,26.50
2023-04-18T07:12:44.646Z,27.67
2023-04-18T07:15:13.975Z,27.00
2023-04-18T07:17:44.576Z,27.10
2023-04-18T07:20:14.420Z,27.38
2023-04-18T07:22:43.668Z,28.23
2023-04-18T07:25:12.904Z,27.08
2023-04-18T07:27:41.995Z,26.75
2023-04-18T07:30:11.985Z,28.42
2023-04-18T07:32:41.076Z,26.63
2023-04-18T07:35:12.236Z,25.92
2023-04-18T07:37:41.269Z,26.95
2023-04-18T07:40:11.582Z,27.08
2023-04-18T07:42:40.611Z,27.95
2023-04-18T07:45:09.998Z,28.05
2023-04-18T07:47:39.047Z,27.60
2023-04-18T07:50:10.408Z,27.25
2023-04-18T07:55:10.390Z,27.25
2023-04-18T07:57:39.424Z,27.00
2023-04-18T08:00:09.878Z,28.02
2023-04-18T08:02:44.818Z,27.35
2023-04-18T08:05:14.003Z,27.45
2023-04-18T08:07:44.452Z,28.58
2023-04-18T08:10:13.513Z,27.07
2023-04-18T08:12:42.543Z,28.05
2023-04-18T08:15:12.522Z,28.05
2023-04-18T08:17:43.994Z,29.30
2023-04-18T08:20:13.975Z,29.40
2023-04-18T08:22:57.456Z,29.60
2023-04-18T08:25:33.596Z,31.98
2023-04-18T08:28:02.836Z,31.42
2023-04-18T08:30:31.893Z,31.55
2023-04-18T08:33:01.093Z,32.13
2023-04-18T08:35:30.263Z,33.63
2023-04-18T08:38:02.162Z,33.33
2023-04-18T08:40:31.415Z,32.58
2023-04-18T08:43:05.008Z,33.55
2023-04-18T08:45:34.526Z,33.28
2023-04-18T08:48:04.032Z,32.83
2023-04-18T08:50:33.494Z,32.85
2023-04-18T08:53:04.104Z,32.50
2023-04-18T08:55:33.717Z,33.92
2023-04-18T08:58:03.284Z,34.10
2023-04-18T09:00:32.846Z,33.20
2023-04-18T09:03:03.937Z,35.05
2023-04-18T09:08:26.200Z,33.47
2023-04-18T09:10:55.219Z,33.35
2023-04-18T09:13:40.303Z,32.10
2023-04-18T09:16:09.327Z,31.92
2023-04-18T09:18:38.495Z,32.72
2023-04-18T09:21:19.748Z,31.13
2023-04-18T09:23:50.436Z,31.10
2023-04-18T09:26:33.923Z,29.90
2023-04-18T09:29:03.323Z,29.77
2023-04-18T09:31:32.575Z,28.95
2023-04-18T09:34:03.147Z,26.58
2023-04-18T09:36:32.498Z,27.30
2023-04-18T09:39:04.050Z,26.83
2023-04-18T09:41:33.919Z,28.35
2023-04-18T09:44:14.350Z,28.00
2023-04-18T09:46:47.082Z,26.60
2023-04-18T09:49:17.458Z,24.88
2023-04-18T09:51:47.348Z,24.27
2023-04-18T09:54:20.119Z,25.02
2023-04-18T09:56:51.880Z,25.23
2023-04-18T09:59:38.255Z,24.75
2023-04-18T10:02:13.500Z,22.52
2023-04-18T10:04:44.755Z,22.23
2023-04-18T10:09:48.036Z,22.92
2023-04-18T10:12:19.323Z,23.40
2023-04-18T10:17:17.359Z,21.38
2023-04-18T10:19:46.912Z,21.45
2023-04-18T10:22:15.894Z,21.52
2023-04-18T10:24:53.085Z,21.88
2023-04-18T10:27:56.881Z,21.80
2023-04-18T10:30:52.844Z,22.70
2023-04-18T10:33:42.005Z,21.73
2023-04-18T10:36:17.166Z,20.95
2023-04-18T10:38:50.824Z,21.83
2023-04-18T10:41:26.418Z,22.25
2023-04-18T10:44:22.716Z,22.25
2023-04-18T10:47:32.233Z,21.13
2023-04-18T10:50:06.312Z,20.95
2023-04-18T10:52:38.262Z,21.30
2023-04-18T10:55:18.565Z,21.27
2023-04-18T10:57:50.648Z,22.17
2023-04-18T11:00:21.843Z,22.90
2023-04-18T11:05:23.776Z,20.92
2023-04-18T11:07:53.031Z,21.30
2023-04-18T11:10:23.888Z,20.77
2023-04-18T11:12:55.552Z,19.90
2023-04-18T11:15:26.283Z,19.40
2023-04-18T11:18:01.369Z,22.10
2023-04-18T11:20:31.671Z,23.42
2023-04-18T11:23:01.572Z,22.02
2023-04-18T11:25:32.333Z,21.23
2023-04-18T11:28:04.630Z,22.35
2023-04-18T11:30:38.618Z,21.50
2023-04-18T11:33:09.449Z,23.05
2023-04-18T11:35:39.677Z,23.00
2023-04-18T11:38:10.379Z,23.27
2023-04-18T11:40:39.744Z,22.30
2023-04-18T11:43:10.180Z,22.25
2023-04-18T11:45:39.419Z,22.53
2023-04-18T11:48:08.492Z,23.30
2023-04-18T11:50:38.611Z,22.30
2023-04-18T11:53:07.614Z,20.98
2023-04-18T11:55:36.806Z,20.80
2023-04-18T11:58:06.167Z,22.10
2023-04-18T12:00:38.637Z,19.65
2023-04-18T12:03:11.732Z,19.33
2023-04-18T12:05:42.356Z,19.35
2023-04-18T12:08:13.333Z,20.00
2023-04-18T12:10:48.030Z,19.35
2023-04-18T12:13:17.220Z,19.83
2023-04-18T12:15:48.667Z,18.70
2023-04-18T12:20:51.684Z,19.95
2023-04-18T12:23:34.480Z,20.40
2023-04-18T12:26:04.782Z,20.02
2023-04-18T12:28:34.678Z,21.23
2023-04-18T12:31:07.386Z,18.90
2023-04-18T12:33:37.071Z,21.58
2023-04-18T12:36:08.329Z,20.40
2023-04-18T12:38:37.576Z,21.25
2023-04-18T12:41:06.759Z,21.42
2023-04-18T12:43:37.383Z,20.40
2023-04-18T12:46:07.903Z,21.10
2023-04-18T12:48:37.031Z,21.43
2023-04-18T12:51:07.038Z,21.23
2023-04-18T12:53:36.081Z,20.92
2023-04-18T12:56:05.780Z,22.33
2023-04-18T12:58:34.948Z,23.52
2023-04-18T13:01:04.883Z,22.40
2023-04-18T13:03:35.492Z,22.27
2023-04-18T13:06:06.112Z,22.52
2023-04-18T13:08:37.541Z,20.45
2023-04-18T13:11:06.714Z,21.63
2023-04-18T13:13:35.894Z,20.73
2023-04-18T13:16:05.368Z,19.73
2023-04-18T13:18:35.961Z,20.38
2023-04-18T13:21:05.194Z,21.77
2023-04-18T13:23:34.252Z,21.48
2023-04-18T13:26:03.453Z,22.10
2023-04-18T13:28:32.545Z,19.50
2023-04-18T13:31:01.628Z,20.83
2023-04-18T13:33:30.833Z,22.08
2023-04-18T13:36:01.318Z,22.08
2023-04-18T13:38:30.738Z,21.38
2023-04-18T13:41:11.331Z,21.50
2023-04-18T13:43:41.066Z,21.42
2023-04-18T13:46:10.279Z,21.48
2023-04-18T13:48:39.329Z,20.73
2023-04-18T13:51:09.807Z,24.95
2023-04-18T13:53:38.865Z,23.73
2023-04-18T13:56:08.361Z,24.98
2023-04-18T13:58:37.421Z,24.60
2023-04-18T14:01:06.754Z,23.77
2023-04-18T14:03:38.348Z,24.95
2023-04-18T14:06:09.950Z,30.70
2023-04-18T14:08:40.086Z,30.97
2023-04-18T14:11:09.141Z,31.00
2023-04-18T14:13:38.212Z,30.23
2023-04-18T14:16:08.285Z,31.00
2023-04-18T14:18:37.760Z,30.45
2023-04-18T14:21:07.429Z,29.35
2023-04-18T14:23:37.872Z,27.83
2023-04-18T14:26:07.054Z,28.13
2023-04-18T14:28:36.327Z,28.17
2023-04-18T14:31:06.581Z,28.05
2023-04-18T14:33:35.869Z,26.80
2023-04-18T14:36:05.247Z,26.17
2023-04-18T14:38:34.484Z,26.45
2023-04-18T14:41:05.363Z,26.00
2023-04-18T14:43:34.489Z,26.35
2023-04-18T14:46:03.779Z,24.38
2023-04-18T14:48:33.004Z,26.85
2023-04-18T14:51:02.645Z,24.52
2023-04-18T14:53:31.712Z,26.65
2023-04-18T14:56:00.801Z,24.50
2023-04-18T14:58:31.374Z,25.38
2023-04-18T15:01:00.546Z,24.85
2023-04-18T15:03:29.820Z,25.73
2023-04-18T15:05:59.165Z,25.52
2023-04-18T15:08:28.586Z,25.55
2023-04-18T15:10:58.094Z,25.13
2023-04-18T15:13:27.380Z,26.88
2023-04-18T15:15:58.175Z,26.45
2023-04-18T15:18:27.285Z,26.63
2023-04-18T15:20:57.092Z,26.65
2023-04-18T15:23:26.172Z,28.25
2023-04-18T15:25:55.361Z,27.55
2023-04-18T15:28:24.399Z,27.33
2023-04-18T15:30:53.568Z,27.92
2023-04-18T15:33:25.230Z,28.75
2023-04-18T15:35:56.080Z,27.45
2023-04-18T15:38:25.263Z,28.10
2023-04-18T15:40:54.286Z,27.35
2023-04-18T15:43:23.291Z,27.45
2023-04-18T15:45:52.619Z,26.63
2023-04-18T15:48:23.134Z,26.80
2023-04-18T15:50:52.883Z,26.58
2023-04-18T15:53:21.972Z,27.17
2023-04-18T15:55:51.465Z,27.48
2023-04-18T15:58:22.032Z,27.55
2023-04-18T16:00:52.070Z,27.35
2023-04-18T16:03:21.596Z,26.88
2023-04-18T16:05:52.561Z,25.20
2023-04-18T16:08:21.642Z,26.17
2023-04-18T16:10:53.236Z,25.80
2023-04-18T16:13:22.350Z,25.55
2023-04-18T16:15:51.436Z,26.20
2023-04-18T16:18:20.506Z,25.02
2023-04-18T16:20:49.671Z,25.10
2023-04-18T16:23:20.674Z,24.00
2023-04-18T16:25:49.733Z,26.73
2023-04-18T16:28:18.784Z,25.27
2023-04-18T16:30:47.992Z,26.67
2023-04-18T16:33:18.539Z,26.70
2023-04-18T16:35:47.726Z,26.10
2023-04-18T16:38:16.784Z,23.85
2023-04-18T16:40:47.286Z,24.60
2023-04-18T16:43:16.392Z,25.45
2023-04-18T16:45:45.498Z,25.33
2023-04-18T16:48:14.671Z,24.33
2023-04-18T16:50:45.717Z,24.98
2023-04-18T16:53:14.830Z,24.77
2023-04-18T16:55:43.945Z,25.90
2023-04-18T16:58:14.408Z,23.02
2023-04-18T17:00:43.530Z,22.93
2023-04-18T17:03:12.628Z,23.38
2023-04-18T17:05:41.614Z,22.27
2023-04-18T17:08:10.764Z,23.17
2023-04-18T17:10:39.803Z,23.15
2023-04-18T17:13:08.826Z,21.25
2023-04-18T17:15:39.386Z,20.85
2023-04-18T17:18:08.505Z,20.73
2023-04-18T17:20:38.002Z,19.25
2023-04-18T17:23:07.180Z,19.65
2023-04-18T17:25:36.641Z,20.38
2023-04-18T17:28:06.225Z,19.50
2023-04-18T17:30:35.617Z,18.50
2023-04-18T17:33:06.193Z,18.42
2023-04-18T17:35:35.590Z,17.85
2023-04-18T17:38:04.695Z,17.75
2023-04-18T17:40:33.776Z,17.65
2023-04-18T17:43:02.822Z,16.60
2023-04-18T17:45:31.904Z,16.60
2023-04-18T17:48:03.005Z,15.48
2023-04-18T17:50:36.930Z,15.75
2023-04-18T17:53:06.084Z,15.82
2023-04-18T17:55:35.171Z,17.05
2023-04-18T17:58:05.244Z,15.63
2023-04-18T18:00:34.283Z,15.68
2023-04-18T18:03:03.868Z,15.00
2023-04-18T18:05:34.543Z,15.10
2023-04-18T18:08:03.562Z,14.55
2023-04-18T18:10:33.488Z,14.70
2023-04-18T18:13:02.521Z,14.15
2023-04-18T18:15:31.656Z,14.48
2023-04-18T18:18:02.009Z,14.90
2023-04-18T18:20:31.109Z,15.23
2023-04-18T18:23:01.918Z,15.23
2023-04-18T18:25:31.264Z,14.95
2023-04-18T18:28:02.272Z,15.43
2023-04-18T18:30:31.420Z,14.15
2023-04-18T18:33:01.981Z,14.82
2023-04-18T18:35:31.306Z,14.25
2023-04-18T18:38:01.848Z,14.50
2023-04-18T18:40:31.060Z,14.73
2023-04-18T18:43:00.051Z,14.07
2023-04-18T18:45:29.326Z,14.50
2023-04-18T18:47:58.489Z,13.95
2023-04-18T18:50:27.738Z,14.77
2023-04-18T18:52:56.753Z,14.45
2023-04-18T18:55:27.322Z,14.60
2023-04-18T18:57:56.364Z,14.88
2023-04-18T19:00:25.668Z,14.13
2023-04-18T19:02:55.090Z,14.82
2023-04-18T19:05:24.469Z,14.90
2023-04-18T19:07:53.527Z,13.68
2023-04-18T19:10:23.278Z,14.65
2023-04-18T19:12:53.759Z,14.80
2023-04-18T19:15:22.914Z,15.80
2023-04-18T19:17:51.957Z,15.63
2023-04-18T19:20:21.456Z,16.08
2023-04-18T19:22:51.089Z,14.38
2023-04-18T19:25:20.300Z,15.60
2023-04-18T19:27:49.605Z,14.88
2023-04-18T19:30:20.529Z,15.23
2023-04-18T19:32:49.882Z,15.68
2023-04-18T19:35:18.981Z,15.15
2023-04-18T19:37:48.091Z,14.77
2023-04-18T19:40:17.199Z,14.65
2023-04-18T19:42:46.715Z,16.08
2023-04-18T19:45:15.814Z,15.60
2023-04-18T19:47:47.841Z,15.88
2023-04-18T19:50:16.995Z,14.63
2023-04-18T19:52:46.272Z,15.52
2023-04-18T19:55:15.447Z,14.40
2023-04-18T19:57:44.855Z,13.93
2023-04-18T20:00:15.293Z,14.18
2023-04-18T20:02:46.003Z,13.20
2023-04-18T20:05:15.699Z,14.93
2023-04-18T20:07:45.426Z,14.68
2023-04-18T20:10:14.642Z,14.20
2023-04-18T20:12:43.639Z,14.48
2023-04-18T20:15:13.276Z,14.75
2023-04-18T20:17:42.374Z,13.38
2023-04-18T20:20:14.043Z,13.85
2023-04-18T20:22:44.786Z,12.43
2023-04-18T20:25:13.827Z,12.98
2023-04-18T20:27:42.880Z,12.32
2023-04-18T20:30:12.580Z,11.65
2023-04-18T20:32:41.620Z,12.20
2023-04-18T20:35:12.634Z,12.55
2023-04-18T20:37:41.698Z,12.00
2023-04-18T20:40:11.394Z,11.57
2023-04-18T20:42:40.408Z,12.75
2023-04-18T20:45:11.238Z,11.48
2023-04-18T20:47:41.409Z,10.95
2023-04-18T20:50:14.117Z,11.20
2023-04-18T20:52:43.700Z,10.95
2023-04-18T20:55:12.785Z,10.23
2023-04-18T20:57:41.880Z,11.48
2023-04-18T21:00:12.346Z,10.35
2023-04-18T21:02:41.718Z,10.50
2023-04-18T21:05:12.439Z,10.18
2023-04-18T21:07:41.819Z,10.33
2023-04-18T21:10:12.087Z,9.68
2023-04-18T21:12:41.155Z,9.50
2023-04-18T21:15:10.860Z,10.15
2023-04-18T21:17:39.904Z,9.45
2023-04-18T21:20:10.254Z,8.98
2023-04-18T21:22:40.664Z,9.70
2023-04-18T21:25:10.690Z,9.87
2023-04-18T21:27:39.798Z,9.25
2023-04-18T21:30:09.702Z,9.32
2023-04-18T21:32:38.879Z,9.88
2023-04-18T21:35:08.535Z,9.65
2023-04-18T21:37:37.672Z,9.35
2023-04-18T21:40:09.750Z,9.43
2023-04-18T21:42:38.853Z,9.27
2023-04-18T21:45:09.152Z,9.52
2023-04-18T21:47:38.344Z,9.02
2023-04-18T21:50:08.738Z,9.32
2023-04-18T21:52:38.112Z,8.80
2023-04-18T21:55:09.346Z,8.80
2023-04-18T21:57:38.364Z,9.38
2023-04-18T22:00:10.710Z,9.23
2023-04-18T22:02:42.140Z,9.70
2023-04-18T22:05:12.965Z,9.30
2023-04-18T22:07:50.500Z,9.57
2023-04-18T22:10:25.281Z,10.02
2023-04-18T22:12:54.654Z,9.23
2023-04-18T22:15:23.922Z,9.65
2023-04-18T22:17:53.095Z,9.35
2023-04-18T22:20:22.742Z,10.00
2023-04-18T22:22:51.801Z,9.68
2023-04-18T22:25:21.138Z,9.02
2023-04-18T22:27:51.600Z,9.07
2023-04-18T22:30:20.689Z,9.27
2023-04-18T22:32:49.796Z,10.45
2023-04-18T22:35:19.426Z,10.05
2023-04-18T22:37:48.513Z,9.15
2023-04-18T22:40:17.734Z,10.10
2023-04-18T22:42:46.743Z,10.70
2023-04-18T22:45:17.160Z,10.48
2023-04-18T22:47:46.399Z,10.35
2023-04-18T22:50:16.068Z,9.88
2023-04-18T22:52:45.154Z,9.18
2023-04-18T22:55:16.423Z,10.02
2023-04-18T23:00:16.434Z,9.05
2023-04-18T23:05:16.105Z,9.75
2023-04-18T23:07:45.137Z,9.95
2023-04-18T23:10:14.181Z,8.77
2023-04-18T23:12:43.195Z,8.30
2023-04-18T23:15:12.789Z,9.30
2023-04-18T23:17:43.463Z,8.77
2023-04-18T23:20:13.833Z,8.45
2023-04-18T23:22:42.882Z,8.77
2023-04-18T23:25:11.962Z,7.70
2023-04-18T23:27:41.047Z,7.88
2023-04-18T23:30:11.118Z,8.25
2023-04-18T23:32:40.317Z,9.02
2023-04-18T23:35:12.444Z,7.65
2023-04-18T23:37:42.230Z,8.13
2023-04-18T23:40:11.443Z,8.15
2023-04-18T23:42:40.470Z,7.90
2023-04-18T23:45:10.015Z,7.75
2023-04-18T23:47:39.102Z,8.98
2023-04-18T23:50:10.746Z,8.98
2023-04-18T23:52:40.594Z,8.52
2023-04-18T23:55:10.280Z,9.02
2023-04-18T23:57:39.352Z,8.70
